Weather at Goderich Airport

Public forecast

Using degrees Celsius for public forecast. Weather courtesy of forecast.io.

Closest aviation weather report (METAR) to Goderich Airport

Closest report is London Airport, 50.2 nm (92.9 km) SSE. Retrieved 2021/01/27 19:22 UTC (0 seconds ago):

CYXU 271922Z 34012KT 15SM BKN018 M04/M08 A3019 RMK CU6 SLP238

Closest aviation forecast (TAF) to Goderich Airport

Closest forecast is London Airport, 50.2 nm (92.9 km) SSE. Retrieved 2021/01/27 18:39 UTC (33 minutes ago):

TAF CYXU 271738Z 2718/2818 32008KT P6SM SCT025 TEMPO 2718/2815 P6SM -SHSN BKN020 BECMG 2720/2722 36008KT FM281500 36010KT 5SM -SHSN BKN020 BECMG 2816/2818 34010G20KT RMK NXT FCST BY 280000Z